Latest Weather Observations for Walpeup RS

IDV60801

Issued at 7:05 pm EST Monday 15 September 2014 (issued every 30 minutes, with the page automatically refreshed every 10 minutes)

About weather observations | Map of weather stations | Latest weather observations for VIC | Other Formats
Station Details ID: 076064 Name: WALPEUP RESEARCH Lat: -35.12 Lon: 142.00 Height: 105.0 m
Data from the previous 72 hours. | See also: Recent months at Walpeup RS
Date/Time
EST
Temp
°C
App
Temp
°C
Dew
Point
Rel
Hum
%
Delta-T
°C
Wind Press
QNH
hPa
Press
MSL
hPa
Rain
since 9 am
mm
Dir
 
Spd
km/h
Gust
km/h
Spd
kts
Gust
kts
15/07:00pm 16.6 13.3 8.1 57 4.3 W 15 24 8 13 - - 0.0
15/06:30pm 17.1 12.9 7.5 53 4.8 W 19 32 10 17 - - 0.0
15/06:00pm 17.8 14.7 7.2 50 5.3 WSW 13 17 7 9 - - 0.0
15/05:30pm 18.5 14.2 7.0 47 5.8 WSW 19 24 10 13 - - 0.0
15/05:00pm 19.2 14.5 5.3 40 6.8 W 19 24 10 13 - - 0.0
15/04:30pm 19.7 16.2 5.4 39 7.0 NW 13 22 7 12 - - 0.0
15/04:00pm 19.3 16.9 6.8 44 6.3 W 9 13 5 7 - - 0.0
15/03:30pm 19.3 15.3 6.8 44 6.3 WNW 17 26 9 14 - - 0.0
15/03:00pm 19.5 14.9 6.6 43 6.5 NW 20 32 11 17 - - 0.0
15/02:30pm 19.7 15.3 6.4 42 6.7 WNW 19 22 10 12 - - 0.0
15/02:00pm 19.7 15.6 6.1 41 6.8 W 17 24 9 13 - - 0.0
15/01:30pm 20.9 16.5 6.4 39 7.3 W 19 26 10 14 - - 0.0
15/01:00pm 20.2 14.8 6.5 41 6.9 WNW 24 32 13 17 - - 0.0
15/12:30pm 20.1 15.0 6.1 40 7.0 NW 22 30 12 16 - - 0.0
15/12:00pm 20.1 16.1 6.8 42 6.8 WNW 17 24 9 13 - - 0.0
15/11:30am 19.9 15.8 6.3 41 6.8 W 17 24 9 13 - - 0.0
15/11:00am 18.8 14.1 6.0 43 6.3 NW 20 30 11 16 - - 0.0
15/10:30am 17.7 13.0 5.9 46 5.8 NW 20 26 11 14 - - 0.0
15/10:00am 16.3 12.1 5.6 49 5.2 NW 17 22 9 12 - - 0.0
15/09:30am 15.9 10.3 3.4 43 5.8 NW 22 30 12 16 - - 0.0
15/09:00am 16.3 10.1 -0.4 32 7.1 N 22 26 12 14 - - 0.0
15/08:30am 14.9 10.1 0.4 37 6.2 N 15 19 8 10 - - 0.0
15/08:00am 13.7 9.5 1.4 43 5.3 NE 13 17 7 9 - - 0.0
15/07:30am 12.1 8.0 2.0 50 4.4 ENE 13 17 7 9 - - 0.0
15/07:00am 12.1 7.5 1.7 49 4.5 ENE 15 20 8 11 - - 0.0
15/06:30am 11.6 7.1 2.1 52 4.1 ENE 15 20 8 11 - - 0.0
15/06:00am 11.8 7.3 2.0 51 4.2 ENE 15 19 8 10 - - 0.0
15/05:30am 11.8 7.3 2.3 52 4.1 ENE 15 19 8 10 - - 0.0
15/05:00am 12.2 7.7 2.4 51 4.3 NE 15 20 8 11 - - 0.0
15/04:30am 12.7 8.3 2.8 51 4.4 ENE 15 20 8 11 - - 0.0
15/04:00am 12.4 8.1 3.1 53 4.1 ENE 15 20 8 11 - - 0.0
15/03:30am 12.6 8.7 3.3 53 4.2 ENE 13 19 7 10 - - 0.0
15/03:00am 12.4 8.9 3.4 54 4.0 ENE 11 19 6 10 - - 0.0
15/02:30am 12.6 8.8 3.8 55 4.0 E 13 19 7 10 - - 0.0
15/02:00am 12.3 8.5 3.8 56 3.8 E 13 17 7 9 - - 0.0
15/01:30am 13.7 9.9 3.8 51 4.5 E 13 20 7 11 - - 0.0
15/01:00am 13.6 9.5 4.2 53 4.3 ENE 15 20 8 11 - - 0.0
15/12:30am 14.1 10.4 4.7 53 4.4 E 13 20 7 11 - - 0.0
15/12:00am 14.7 11.1 5.0 52 4.6 E 13 17 7 9 - - 0.0
 
Date/Time
EST
Temp
°C
App
Temp
°C
Dew
Point
Rel
Hum
%
Delta-T
°C
Wind Press
QNH
hPa
Press
MSL
hPa
Rain
since 9 am
mm
Dir
 
Spd
km/h
Gust
km/h
Spd
kts
Gust
kts
14/11:30pm 14.9 11.7 4.9 51 4.7 E 11 17 6 9 - - 0.0
14/11:00pm 15.6 12.3 4.6 48 5.2 E 11 17 6 9 - - 0.0
14/10:30pm 16.6 13.3 4.6 45 5.7 ESE 11 17 6 9 - - 0.0
14/10:00pm 17.3 14.0 4.6 43 6.1 ESE 11 15 6 8 - - 0.0
14/09:30pm 18.3 15.0 4.5 40 6.6 ESE 11 15 6 8 - - 0.0
14/09:00pm 18.5 15.4 3.6 37 7.0 ESE 9 13 5 7 - - 0.0
14/08:30pm 18.3 15.5 3.0 36 7.1 E 7 11 4 6 - - 0.0
14/08:00pm 17.8 14.9 2.5 36 7.0 E 7 7 4 4 - - 0.0
14/07:30pm 19.0 16.1 2.8 34 7.5 SE 7 9 4 5 - - 0.0
14/07:00pm 19.2 16.4 3.0 34 7.6 SSE 7 7 4 4 - - 0.0
14/06:30pm 19.5 16.9 3.2 34 7.7 S 6 7 3 4 - - 0.0
14/06:00pm 20.2 17.4 3.0 32 8.1 S 7 9 4 5 - - 0.0
14/05:30pm 22.5 18.9 3.1 28 9.3 S 11 15 6 8 - - 0.0
14/05:00pm 23.0 19.4 3.0 27 9.6 SSW 11 15 6 8 - - 0.0
14/04:30pm 23.4 20.7 2.8 26 9.9 SSW 6 9 3 5 - - 0.0
14/04:00pm 23.3 20.4 2.7 26 9.9 SW 7 11 4 6 - - 0.0
14/03:30pm 23.5 19.8 2.4 25 10.1 W 11 17 6 9 - - 0.0
14/03:00pm 23.8 19.4 2.6 25 10.2 W 15 24 8 13 - - 0.0
14/02:30pm 24.4 19.9 1.9 23 10.7 W 15 28 8 15 - - 0.0
14/02:00pm 24.5 20.8 2.6 24 10.6 W 11 22 6 12 - - 0.0
14/01:30pm 24.3 20.7 3.0 25 10.4 WNW 11 24 6 13 - - 0.0
14/01:00pm 23.2 19.5 2.1 25 10.0 NNW 11 19 6 10 - - 0.0
14/12:30pm 22.9 19.9 1.9 25 9.9 W 7 13 4 7 - - 0.0
14/12:00pm 21.6 18.6 1.8 27 9.2 W 7 13 4 7 - - 0.0
14/11:30am 20.2 17.4 2.1 30 8.4 SSW 6 11 3 6 - - 0.0
14/11:00am 18.4 15.4 1.0 31 7.8 SW 6 13 3 7 - - 0.0
14/10:30am 17.7 13.8 1.2 33 7.4 W 11 17 6 9 - - 0.0
14/10:00am 16.5 13.3 1.0 35 6.8 W 7 11 4 6 - - 0.0
14/09:30am 15.7 11.7 0.7 36 6.5 NW 11 15 6 8 - - 0.0
14/09:00am 16.1 11.4 0.7 35 6.7 NNW 15 19 8 10 - - 0.0
14/08:30am 15.8 12.2 0.4 35 6.6 N 9 15 5 8 - - 0.0
14/08:00am 13.5 10.5 0.9 42 5.4 NNE 6 9 3 5 - - 0.0
14/07:30am 11.9 7.9 0.4 45 4.8 NNE 11 15 6 8 - - 0.0
14/07:00am 10.5 6.0 0.0 48 4.3 N 13 17 7 9 - - 0.0
14/06:30am 10.8 6.0 0.0 47 4.4 N 15 17 8 9 - - 0.0
14/06:00am 10.1 5.8 0.7 52 3.9 N 13 17 7 9 - - 0.0
14/05:30am 9.9 5.6 0.8 53 3.7 N 13 17 7 9 - - 0.0
14/05:00am 10.1 5.4 0.7 52 3.9 NNE 15 20 8 11 - - 0.0
14/04:30am 10.6 5.5 0.9 51 4.0 NNE 17 22 9 12 - - 0.0
14/04:00am 11.4 6.3 0.5 47 4.5 NNE 17 20 9 11 - - 0.0
14/03:30am 11.7 6.9 0.5 46 4.7 NNE 15 19 8 10 - - 0.0
14/03:00am 9.8 6.1 -0.1 50 4.0 N 9 11 5 6 - - 0.0
14/02:30am 8.3 5.1 -0.2 55 3.4 NW 6 7 3 4 - - 0.0
14/02:00am 10.3 5.5 0.1 49 4.1 N 15 19 8 10 - - 0.0
14/01:30am 12.4 7.6 -0.1 42 5.2 NNE 15 17 8 9 - - 0.0
14/01:00am 14.0 9.2 -0.1 38 5.9 N 15 19 8 10 - - 0.0
14/12:30am 13.8 9.3 -0.3 38 5.9 N 13 17 7 9 - - 0.0
14/12:00am 13.3 9.2 -0.3 39 5.6 NNE 11 15 6 8 - - 0.0
 
Date/Time
EST
Temp
°C
App
Temp
°C
Dew
Point
Rel
Hum
%
Delta-T
°C
Wind Press
QNH
hPa
Press
MSL
hPa
Rain
since 9 am
mm
Dir
 
Spd
km/h
Gust
km/h
Spd
kts
Gust
kts
13/11:30pm 13.5 9.8 -0.2 39 5.7 N 9 11 5 6 - - 0.0
13/11:00pm 13.8 11.8 -0.3 38 5.9 CALM 0 4 0 2 - - 0.0
13/10:30pm 13.1 11.0 -0.5 39 5.6 CALM 0 0 0 0 - - 0.0
13/10:00pm 12.3 10.3 -0.2 42 5.1 CALM 0 0 0 0 - - 0.0
13/09:30pm 14.3 10.2 -0.5 36 6.2 N 11 15 6 8 - - 0.0
13/09:00pm 15.7 11.2 -0.1 34 6.7 N 13 15 7 8 - - 0.0
13/08:30pm 15.9 11.8 -0.3 33 6.9 NNE 11 15 6 8 - - 0.0
13/08:00pm 15.8 12.0 -0.4 33 6.9 NNE 9 11 5 6 - - 0.0
13/07:30pm 16.0 12.7 0.2 34 6.8 N 7 9 4 5 - - 0.0
13/07:00pm 16.5 13.2 -0.2 32 7.2 NNE 7 9 4 5 - - 0.0
13/06:30pm 17.9 14.7 -0.4 29 7.9 NNE 6 7 3 4 - - 0.0
13/06:00pm 19.8 17.0 -0.2 26 8.8 N 4 6 2 3 - - 0.0
13/05:30pm 21.3 18.0 -0.1 24 9.6 NW 7 11 4 6 - - 0.0
13/05:00pm 21.4 17.2 -0.6 23 9.8 NW 11 19 6 10 - - 0.0
13/04:30pm 21.6 17.6 0.2 24 9.7 N 11 19 6 10 - - 0.0
13/04:00pm 21.8 17.7 -0.2 23 9.9 NNW 11 24 6 13 - - 0.0
13/03:30pm 21.5 17.4 -0.5 23 9.8 NW 11 20 6 11 - - 0.0
13/03:00pm 21.4 17.3 0.0 24 9.6 NNW 11 19 6 10 - - 0.0
13/02:30pm 21.1 17.1 0.3 25 9.4 NNW 11 19 6 10 - - 0.0
13/02:00pm 20.6 16.2 0.4 26 9.1 NNW 13 22 7 12 - - 0.0
13/01:30pm 20.8 16.5 1.1 27 9.0 NNW 13 20 7 11 - - 0.0
13/01:00pm 19.6 15.3 1.1 29 8.4 N 13 24 7 13 - - 0.0
13/12:30pm 19.5 16.4 1.5 30 8.2 NNW 7 15 4 8 - - 0.0
13/12:00pm 18.8 15.3 1.3 31 7.9 NW 9 19 5 10 - - 0.0
13/11:30am 18.1 14.6 1.2 32 7.6 N 9 17 5 9 - - 0.0
13/11:00am 17.1 13.3 1.5 35 7.0 N 11 19 6 10 - - 0.0
13/10:30am 16.9 13.2 2.5 38 6.6 NNE 11 17 6 9 - - 0.0
13/10:00am 15.2 11.2 2.7 43 5.6 NNE 13 19 7 10 - - 0.0
13/09:30am 13.6 10.0 3.1 49 4.7 NE 11 17 6 9 - - 0.0
13/09:00am 11.9 8.4 3.4 56 3.8 NE 11 15 6 8 - - 0.0
13/08:30am 9.8 5.8 2.9 62 3.0 ENE 13 15 7 8 - - 0.0
13/08:00am 8.8 5.2 3.0 67 2.5 E 11 17 6 9 - - 0.0
13/07:30am 7.1 3.0 2.4 72 2.0 E 13 19 7 10 - - 0.0
13/07:00am 6.2 2.1 2.1 75 1.7 E 13 19 7 10 - - 0.0
13/06:30am 6.2 2.1 2.1 75 1.7 E 13 15 7 8 - - 0.0
13/06:00am 6.5 2.8 2.2 74 1.8 E 11 15 6 8 - - 0.0
13/05:30am 6.8 3.1 2.3 73 1.9 ESE 11 15 6 8 - - 0.0
13/05:00am 6.6 2.9 2.1 73 1.8 ESE 11 15 6 8 - - 0.0
13/04:30am 6.5 3.1 1.8 72 1.9 ESE 9 13 5 7 - - 0.0
13/04:00am 7.0 3.6 1.9 70 2.1 ESE 9 15 5 8 - - 0.0
13/03:30am 7.7 4.4 2.2 68 2.3 ESE 9 15 5 8 - - 0.0
13/03:00am 7.9 4.2 2.4 68 2.3 ESE 11 17 6 9 - - 0.0
13/02:30am 7.9 4.6 2.6 69 2.2 SE 9 15 5 8 - - 0.0
13/02:00am 7.3 3.6 2.2 70 2.1 SSE 11 15 6 8 - - 0.0
13/01:30am 8.8 4.7 2.4 64 2.7 SSE 13 20 7 11 - - 0.0
13/01:00am 7.8 4.4 1.9 66 2.4 SSE 9 15 5 8 - - 0.0
13/12:30am 9.3 5.5 1.9 60 3.1 SSE 11 17 6 9 - - 0.0
13/12:00am 9.7 6.3 1.8 58 3.3 SE 9 15 5 8 - - 0.0
 
Date/Time
EST
Temp
°C
App
Temp
°C
Dew
Point
Rel
Hum
%
Delta-T
°C
Wind Press
QNH
hPa
Press
MSL
hPa
Rain
since 9 am
mm
Dir
 
Spd
km/h
Gust
km/h
Spd
kts
Gust
kts
12/11:30pm 10.0 6.6 2.1 58 3.4 SE 9 11 5 6 - - 0.0
12/11:00pm 10.5 7.1 1.6 54 3.8 SE 9 15 5 8 - - 0.0
12/10:30pm 10.9 7.1 1.7 53 3.9 SSE 11 15 6 8 - - 0.0
12/10:00pm 10.9 7.4 1.4 52 4.0 SE 9 11 5 6 - - 0.0
12/09:30pm 11.6 8.1 1.5 50 4.3 SSE 9 13 5 7 - - 0.0
12/09:00pm 11.9 8.4 1.5 49 4.4 SE 9 15 5 8 - - 0.0
12/08:30pm 12.1 8.2 1.4 48 4.6 SE 11 15 6 8 - - 0.0
12/08:00pm 12.2 8.3 1.2 47 4.7 SSE 11 15 6 8 - - 0.0
12/07:30pm 13.0 9.5 1.0 44 5.1 SE 9 13 5 7 - - 0.0

Other Formats:

Comma delimited format used in spreadsheet applications
http://www.bom.gov.au/fwo/IDV60801/IDV60801.95831.axf

JavaScript Object Notation format (JSON) in row-major order
http://www.bom.gov.au/fwo/IDV60801/IDV60801.95831.json